Time;durP1;ratioP1;P1;durP2;ratioP2;P2;SDS_P1;SDS_P2;PMS_P1;PMS_P2;Temp;Humidity;BMP_temperature;BMP_pressure;BME280_temperature;BME280_humidity;BME280_pressure;Samples;Min_cycle;Max_cycle;Signal;HPM_P1;HPM_P2
2024/01/03 00:02:19;;;;;;;;;;;;;;;-140.72;0.00;52315.78;5097671;28;19994;-72
2024/01/03 00:04:44;;;;;;;;;;;;;;;-140.72;0.00;52281.28;5095292;28;20010;-72
2024/01/03 00:07:09;;;;;;;;;;;;;;;-140.72;0.00;52246.78;5084402;28;19920;-72
2024/01/03 00:09:35;;;;;;;;;;;;;;;-140.72;0.00;52281.28;5083997;28;19945;-72
2024/01/03 00:12:02;;;;;;;;;;;;;;;-140.72;0.00;52261.00;5079636;28;19916;-72
2024/01/03 00:14:33;;;;;;;;;;;;;;;-140.72;0.00;52263.03;5069863;28;19963;-72
2024/01/03 00:17:01;;;;;;;;;;;;;;;-140.72;0.00;52275.19;5088565;28;20012;-72
2024/01/03 00:19:33;;;;;;;;;;;;;;;-140.72;0.00;52216.34;5074662;28;19924;-72
2024/01/03 00:22:00;;;;;;;;;;;;;;;-140.72;0.00;52234.63;5097101;28;19923;-72
2024/01/03 00:24:25;;;;;;;;;;;;;;;-140.72;0.00;52232.59;5076133;28;19923;-72
2024/01/03 00:26:50;;;;;;;;;;;;;;;-140.72;0.00;52218.38;5098516;28;20324;-72
2024/01/03 00:29:24;;;;;;;;;;;;;;;-140.72;0.00;52236.66;5092203;28;20678;-72
2024/01/03 00:31:50;;;;;;;;;;;;;;;-140.72;0.00;52248.81;5100171;28;19915;-72
2024/01/03 00:34:21;;;;;;;;;;;;;;;-140.72;0.00;52244.78;5103338;28;19923;-72
2024/01/03 00:36:47;;;;;;;;;;;;;;;-140.72;0.00;52212.31;5097933;28;19920;-72
2024/01/03 00:39:13;;;;;;;;;;;;;;;-140.72;0.00;52214.34;5085860;28;19927;-72
2024/01/03 00:41:38;;;;;;;;;;;;;;;-140.72;0.00;52261.00;5096575;28;19920;-72
2024/01/03 00:44:03;;;;;;;;;;;;;;;-140.72;0.00;52238.69;5093993;28;19923;-72
2024/01/03 00:46:29;;;;;;;;;;;;;;;-140.72;0.00;52238.69;5096602;28;19931;-72
2024/01/03 00:48:54;;;;;;;;;;;;;;;-140.72;0.00;52240.72;5088044;28;19920;-72
2024/01/03 00:51:19;;;;;;;;;;;;;;;-140.72;0.00;52238.69;5093340;28;19964;-72
2024/01/03 00:53:45;;;;;;;;;;;;;;;-140.72;0.00;52232.59;5083282;28;19921;-72
2024/01/03 00:56:10;;;;;;;;;;;;;;;-140.72;0.00;52248.81;5067928;28;19927;-72
2024/01/03 00:58:35;;;;;;;;;;;;;;;-140.72;0.00;52265.06;5062621;28;19917;-72
2024/01/03 01:01:01;;;;;;;;;;;;;;;-140.72;0.00;52256.94;5079062;28;20350;-72
2024/01/03 01:03:27;;;;;;;;;;;;;;;-140.72;0.00;52210.28;5064989;28;19921;-72
2024/01/03 01:05:52;;;;;;;;;;;;;;;-140.72;0.00;52192.00;5078468;28;19923;-72
2024/01/03 01:08:17;;;;;;;;;;;;;;;-140.72;0.00;52242.75;5063564;28;19917;-72
2024/01/03 01:10:42;;;;;;;;;;;;;;;-140.72;0.00;52224.47;5068634;28;19928;-72
2024/01/03 01:13:08;;;;;;;;;;;;;;;-140.72;0.00;52222.44;5072789;28;19924;-72
2024/01/03 01:15:33;;;;;;;;;;;;;;;-140.72;0.00;52246.78;5080096;28;19917;-72
2024/01/03 01:17:58;;;;;;;;;;;;;;;-140.72;0.00;52252.88;5071778;28;19924;-72
2024/01/03 01:20:23;;;;;;;;;;;;;;;-140.72;0.00;52248.81;5089597;28;20293;-73
2024/01/03 01:22:49;;;;;;;;;;;;;;;-140.72;0.00;52248.81;5074655;28;20327;-72
2024/01/03 01:25:15;;;;;;;;;;;;;;;-140.72;0.00;52218.38;5081493;28;19965;-73
2024/01/03 01:27:41;;;;;;;;;;;;;;;-140.72;0.00;52212.31;5059002;28;20350;-72
2024/01/03 01:30:06;;;;;;;;;;;;;;;-140.72;0.00;52187.97;5068219;28;19999;-72
2024/01/03 01:32:31;;;;;;;;;;;;;;;-140.72;0.00;52200.13;5070680;28;19952;-72
2024/01/03 01:34:56;;;;;;;;;;;;;;;-140.72;0.00;52216.34;5071092;28;19916;-72
2024/01/03 01:37:22;;;;;;;;;;;;;;;-140.72;0.00;52230.56;5080142;28;19920;-72
2024/01/03 01:39:47;;;;;;;;;;;;;;;-140.72;0.00;52236.66;5067926;28;19980;-72
2024/01/03 01:42:12;;;;;;;;;;;;;;;-140.72;0.00;52228.53;5076429;28;19985;-72
2024/01/03 01:44:37;;;;;;;;;;;;;;;-140.72;0.00;52200.13;5077941;28;19925;-73
2024/01/03 01:47:05;;;;;;;;;;;;;;;-140.72;0.00;52261.00;5078304;28;20017;-72
2024/01/03 01:49:31;;;;;;;;;;;;;;;-140.72;0.00;52208.25;5086969;28;19931;-72
2024/01/03 01:51:56;;;;;;;;;;;;;;;-140.72;0.00;52250.84;5085733;28;20315;-72
2024/01/03 01:54:23;;;;;;;;;;;;;;;-140.72;0.00;52212.31;5113178;28;20037;-72
2024/01/03 01:56:48;;;;;;;;;;;;;;;-140.72;0.00;52279.25;5098549;28;19947;-72
2024/01/03 01:59:14;;;;;;;;;;;;;;;-140.72;0.00;52183.91;5089647;28;20341;-72
2024/01/03 02:01:40;;;;;;;;;;;;;;;-140.72;0.00;52208.25;5082329;28;19931;-73
2024/01/03 02:04:07;;;;;;;;;;;;;;;-140.72;0.00;52216.34;5093390;28;19931;-72
2024/01/03 02:06:32;;;;;;;;;;;;;;;-140.72;0.00;52244.78;5100133;28;20310;-72
2024/01/03 02:08:58;;;;;;;;;;;;;;;-140.72;0.00;52218.38;5082889;28;19920;-72
2024/01/03 02:11:23;;;;;;;;;;;;;;;-140.72;0.00;52196.06;5092170;28;19920;-72
2024/01/03 02:13:48;;;;;;;;;;;;;;;-140.72;0.00;52212.31;5070408;28;19924;-72
2024/01/03 02:16:13;;;;;;;;;;;;;;;-140.72;0.00;52208.25;5100186;28;19916;-72
2024/01/03 02:18:39;;;;;;;;;;;;;;;-140.72;0.00;52196.06;5102832;28;19934;-72
2024/01/03 02:21:07;;;;;;;;;;;;;;;-140.72;0.00;52228.53;5097035;28;20423;-72
2024/01/03 02:23:33;;;;;;;;;;;;;;;-140.72;0.00;52240.72;5088595;28;20283;-72
2024/01/03 02:25:58;;;;;;;;;;;;;;;-140.72;0.00;52204.19;5094588;28;19924;-72
2024/01/03 02:28:24;;;;;;;;;;;;;;;-140.72;0.00;52210.28;5099925;28;20392;-72
2024/01/03 02:30:49;;;;;;;;;;;;;;;-140.72;0.00;52269.13;5101190;28;19930;-72
2024/01/03 02:33:15;;;;;;;;;;;;;;;-140.72;0.00;52218.38;5078114;28;20068;-73
2024/01/03 02:35:40;;;;;;;;;;;;;;;-140.72;0.00;52173.75;5082825;28;19932;-72
2024/01/03 02:38:06;;;;;;;;;;;;;;;-140.72;0.00;52220.41;5084617;28;19923;-72
2024/01/03 02:40:31;;;;;;;;;;;;;;;-140.72;0.00;52194.03;5083767;28;19950;-72
2024/01/03 02:42:56;;;;;;;;;;;;;;;-140.72;0.00;52212.31;5101122;28;20383;-72
2024/01/03 02:45:21;;;;;;;;;;;;;;;-140.72;0.00;52196.06;5097915;28;20361;-72
2024/01/03 02:47:47;;;;;;;;;;;;;;;-140.72;0.00;52177.81;5100470;28;19920;-74
2024/01/03 02:50:12;;;;;;;;;;;;;;;-140.72;0.00;52269.13;5098038;28;20053;-72
2024/01/03 02:52:37;;;;;;;;;;;;;;;-140.72;0.00;52196.06;5080144;28;19978;-72
2024/01/03 02:55:02;;;;;;;;;;;;;;;-140.72;0.00;52169.69;5107836;28;19926;-72
2024/01/03 02:57:27;;;;;;;;;;;;;;;-140.72;0.00;52171.72;5101081;28;19920;-72
2024/01/03 02:59:53;;;;;;;;;;;;;;;-140.72;0.00;52200.13;5104476;28;19977;-72
2024/01/03 03:02:18;;;;;;;;;;;;;;;-140.72;0.00;52214.34;5096922;28;20377;-72
2024/01/03 03:04:44;;;;;;;;;;;;;;;-140.72;0.00;52177.81;5096100;28;19963;-73
2024/01/03 03:07:09;;;;;;;;;;;;;;;-140.72;0.00;52204.19;5075202;28;19932;-72
2024/01/03 03:09:34;;;;;;;;;;;;;;;-140.72;0.00;52129.13;5081366;28;19924;-73
2024/01/03 03:11:59;;;;;;;;;;;;;;;-140.72;0.00;52204.19;5094472;28;20373;-73
2024/01/03 03:14:24;;;;;;;;;;;;;;;-140.72;0.00;52206.22;5099430;28;19934;-73
2024/01/03 03:16:50;;;;;;;;;;;;;;;-140.72;0.00;52206.22;5068240;28;20015;-73
2024/01/03 03:19:15;;;;;;;;;;;;;;;-140.72;0.00;52183.91;5101391;28;20004;-73
2024/01/03 03:21:40;;;;;;;;;;;;;;;-140.72;0.00;52161.56;5089091;28;19924;-73
2024/01/03 03:24:06;;;;;;;;;;;;;;;-140.72;0.00;52161.56;5094084;28;19927;-73
2024/01/03 03:26:31;;;;;;;;;;;;;;;-140.72;0.00;52200.13;5073710;28;19931;-73
2024/01/03 03:28:56;;;;;;;;;;;;;;;-140.72;0.00;52206.22;5090621;28;20422;-73
2024/01/03 03:31:21;;;;;;;;;;;;;;;-140.72;0.00;52206.22;5080883;28;20293;-73
2024/01/03 03:33:47;;;;;;;;;;;;;;;-140.72;0.00;52214.34;5099921;28;20038;-73
2024/01/03 03:36:12;;;;;;;;;;;;;;;-140.72;0.00;52183.91;5104142;28;19919;-73
2024/01/03 03:38:38;;;;;;;;;;;;;;;-140.72;0.00;52216.34;5099242;28;19936;-73
2024/01/03 03:41:07;;;;;;;;;;;;;;;-140.72;0.00;52204.19;5100969;28;19995;-73
2024/01/03 03:43:32;;;;;;;;;;;;;;;-140.72;0.00;52183.91;5097917;28;19940;-73
2024/01/03 03:45:58;;;;;;;;;;;;;;;-140.72;0.00;52167.66;5085804;28;20374;-73
2024/01/03 03:48:23;;;;;;;;;;;;;;;-140.72;0.00;52208.25;5085935;28;19916;-73
2024/01/03 03:50:48;;;;;;;;;;;;;;;-140.72;0.00;52212.31;5093112;28;19928;-73
2024/01/03 03:53:14;;;;;;;;;;;;;;;-140.72;0.00;52198.09;5095396;28;19942;-73
2024/01/03 03:55:40;;;;;;;;;;;;;;;-140.72;0.00;52167.66;5100163;28;19927;-73
2024/01/03 03:58:05;;;;;;;;;;;;;;;-140.72;0.00;52200.13;5077260;28;20377;-73
2024/01/03 04:00:30;;;;;;;;;;;;;;;-140.72;0.00;52204.19;5067190;28;20025;-73
2024/01/03 04:02:55;;;;;;;;;;;;;;;-140.72;0.00;52200.13;5079714;28;19964;-73
2024/01/03 04:05:21;;;;;;;;;;;;;;;-140.72;0.00;52208.25;5086244;28;19920;-73
2024/01/03 04:07:46;;;;;;;;;;;;;;;-140.72;0.00;52236.66;5103862;28;19920;-73
2024/01/03 04:10:11;;;;;;;;;;;;;;;-140.72;0.00;52189.97;5074525;28;19920;-73
2024/01/03 04:12:38;;;;;;;;;;;;;;;-140.72;0.00;52183.91;5076558;28;19943;-73
2024/01/03 04:15:03;;;;;;;;;;;;;;;-140.72;0.00;52224.47;5084706;28;19924;-73
2024/01/03 04:17:28;;;;;;;;;;;;;;;-140.72;0.00;52248.81;5087201;28;19990;-73
2024/01/03 04:19:55;;;;;;;;;;;;;;;-140.72;0.00;52208.25;5078596;28;19969;-73
2024/01/03 04:22:21;;;;;;;;;;;;;;;-140.72;0.00;52192.00;5093138;28;19920;-73
2024/01/03 04:24:46;;;;;;;;;;;;;;;-140.72;0.00;52204.19;5092994;28;19985;-73
2024/01/03 04:27:11;;;;;;;;;;;;;;;-140.72;0.00;52185.94;5092269;28;19916;-73
2024/01/03 04:29:36;;;;;;;;;;;;;;;-140.72;0.00;52210.28;5093070;28;19927;-73
2024/01/03 04:32:01;;;;;;;;;;;;;;;-140.72;0.00;52167.66;5091300;28;19920;-73
2024/01/03 04:34:27;;;;;;;;;;;;;;;-140.72;0.00;52175.78;5082321;28;19924;-73
2024/01/03 04:36:52;;;;;;;;;;;;;;;-140.72;0.00;52179.84;5088608;28;19989;-73
2024/01/03 04:39:17;;;;;;;;;;;;;;;-140.72;0.00;52200.13;5083593;28;19920;-73
2024/01/03 04:41:43;;;;;;;;;;;;;;;-140.72;0.00;52163.59;5102766;28;19922;-73
2024/01/03 04:44:08;;;;;;;;;;;;;;;-140.72;0.00;52159.56;5083799;28;19921;-73
2024/01/03 04:46:33;;;;;;;;;;;;;;;-140.72;0.00;52129.13;5078396;28;19920;-73
2024/01/03 04:48:58;;;;;;;;;;;;;;;-140.72;0.00;52151.44;5087518;28;20305;-73
2024/01/03 04:51:23;;;;;;;;;;;;;;;-140.72;0.00;52171.72;5086136;28;20374;-73
2024/01/03 04:53:50;;;;;;;;;;;;;;;-140.72;0.00;52183.91;5079931;28;19923;-73
2024/01/03 04:56:15;;;;;;;;;;;;;;;-140.72;0.00;52220.41;5070545;28;19959;-73
2024/01/03 04:58:41;;;;;;;;;;;;;;;-140.72;0.00;52202.16;5081063;28;20409;-73
2024/01/03 05:01:06;;;;;;;;;;;;;;;-140.72;0.00;52187.97;5084170;28;20018;-73
2024/01/03 05:03:31;;;;;;;;;;;;;;;-140.72;0.00;52224.47;5096054;28;20327;-73
2024/01/03 05:05:56;;;;;;;;;;;;;;;-140.72;0.00;52232.59;5094722;28;19920;-73
2024/01/03 05:08:21;;;;;;;;;;;;;;;-140.72;0.00;52228.53;5092089;28;20320;-73
2024/01/03 05:10:47;;;;;;;;;;;;;;;-140.72;0.00;52204.19;5095777;28;19975;-73
2024/01/03 05:13:12;;;;;;;;;;;;;;;-140.72;0.00;52244.78;5094415;28;19921;-72
2024/01/03 05:15:37;;;;;;;;;;;;;;;-140.72;0.00;52232.59;5089999;28;19944;-75
2024/01/03 05:18:02;;;;;;;;;;;;;;;-140.72;0.00;52265.06;5084695;28;19968;-74
2024/01/03 05:20:28;;;;;;;;;;;;;;;-140.72;0.00;52244.78;5086709;28;19920;-73
2024/01/03 05:22:54;;;;;;;;;;;;;;;-140.72;0.00;52220.41;5086476;28;19947;-73
2024/01/03 05:25:19;;;;;;;;;;;;;;;-140.72;0.00;52246.78;5108872;28;19932;-73
2024/01/03 05:27:44;;;;;;;;;;;;;;;-140.72;0.00;52246.78;5079775;28;20385;-77
2024/01/03 05:30:10;;;;;;;;;;;;;;;-140.72;0.00;52216.34;5079875;28;19921;-74
2024/01/03 05:32:35;;;;;;;;;;;;;;;-140.72;0.00;52177.81;5086003;28;20030;-73
2024/01/03 05:35:00;;;;;;;;;;;;;;;-140.72;0.00;52204.19;5090590;28;19923;-73
2024/01/03 05:37:26;;;;;;;;;;;;;;;-140.72;0.00;52167.66;5075062;28;19920;-73
2024/01/03 05:39:51;;;;;;;;;;;;;;;-140.72;0.00;52269.13;5097673;28;19927;-72
2024/01/03 05:42:16;;;;;;;;;;;;;;;-140.72;0.00;52189.97;5103563;28;19926;-73
2024/01/03 05:44:41;;;;;;;;;;;;;;;-140.72;0.00;52212.31;5093058;28;19920;-75
2024/01/03 05:47:07;;;;;;;;;;;;;;;-140.72;0.00;52208.25;5095765;28;20017;-75
2024/01/03 05:49:34;;;;;;;;;;;;;;;-140.72;0.00;52171.72;5076320;28;20006;-76
2024/01/03 05:51:59;;;;;;;;;;;;;;;-140.72;0.00;52258.97;5074596;28;19924;-75
2024/01/03 05:54:24;;;;;;;;;;;;;;;-140.72;0.00;52230.56;5063449;28;19920;-78
2024/01/03 05:56:50;;;;;;;;;;;;;;;-140.72;0.00;52196.06;5098238;28;20013;-73
2024/01/03 05:59:15;;;;;;;;;;;;;;;-140.72;0.00;52163.59;5098855;28;19920;-75
2024/01/03 06:01:40;;;;;;;;;;;;;;;-140.72;0.00;52220.41;5097973;28;19921;-73
2024/01/03 06:04:06;;;;;;;;;;;;;;;-140.72;0.00;52212.31;5080103;28;19927;-74
2024/01/03 06:06:31;;;;;;;;;;;;;;;-140.72;0.00;52198.09;5092487;28;20411;-75
2024/01/03 06:08:56;;;;;;;;;;;;;;;-140.72;0.00;52214.34;5089462;28;20334;-76
2024/01/03 06:11:22;;;;;;;;;;;;;;;-140.72;0.00;52206.22;5075133;28;19920;-73
2024/01/03 06:13:49;;;;;;;;;;;;;;;-140.72;0.00;52187.97;5101289;28;20397;-73
2024/01/03 06:16:14;;;;;;;;;;;;;;;-140.72;0.00;52265.06;5088983;28;19927;-74
2024/01/03 06:18:40;;;;;;;;;;;;;;;-140.72;0.00;52244.78;5072055;28;20352;-73
2024/01/03 06:21:09;;;;;;;;;;;;;;;-140.72;0.00;52202.16;5060766;28;20356;-72
2024/01/03 06:23:37;;;;;;;;;;;;;;;-140.72;0.00;52244.78;5080288;28;19956;-72
2024/01/03 06:26:03;;;;;;;;;;;;;;;-140.72;0.00;52208.25;5094230;28;20018;-72
2024/01/03 06:28:28;;;;;;;;;;;;;;;-140.72;0.00;52240.72;5101623;28;20054;-75
2024/01/03 06:30:53;;;;;;;;;;;;;;;-140.72;0.00;52240.72;5085093;28;19916;-75
2024/01/03 06:33:18;;;;;;;;;;;;;;;-140.72;0.00;52234.63;5082205;28;20030;-74
2024/01/03 06:35:44;;;;;;;;;;;;;;;-140.72;0.00;52212.31;5093345;28;20026;-72
2024/01/03 06:38:09;;;;;;;;;;;;;;;-140.72;0.00;52263.03;5084792;28;19955;-72
2024/01/03 06:40:34;;;;;;;;;;;;;;;-140.72;100.00;52265.06;5096238;28;19968;-71
2024/01/03 06:42:59;;;;;;;;;;;;;;;-140.72;26.48;52263.03;5091958;28;19920;-71
2024/01/03 06:45:25;;;;;;;;;;;;;;;-140.72;0.00;52267.09;5102339;28;19919;-72
2024/01/03 06:47:50;;;;;;;;;;;;;;;-140.72;0.00;52263.03;5075247;28;19931;-71
2024/01/03 06:50:16;;;;;;;;;;;;;;;-140.72;0.00;52248.81;5056911;28;19917;-71
2024/01/03 06:52:41;;;;;;;;;;;;;;;-140.72;0.00;52244.78;5010858;28;1787752;-71
2024/01/03 06:55:07;;;;;;;;;;;;;;;-140.72;0.00;52252.88;5084141;28;20301;-71
2024/01/03 06:57:33;;;;;;;;;;;;;;;-140.72;0.00;52212.31;5081373;28;20070;-72
2024/01/03 06:59:58;;;;;;;;;;;;;;;-140.72;0.00;52240.72;5067413;28;19924;-71
2024/01/03 07:02:23;;;;;;;;;;;;;;;-140.72;0.00;52240.72;5095017;28;20422;-71
2024/01/03 07:04:49;;;;;;;;;;;;;;;-140.72;0.00;52228.53;5067924;28;20039;-72
2024/01/03 07:07:15;;;;;;;;;;;;;;;-140.72;0.00;52265.06;5098104;28;20382;-72
2024/01/03 07:09:44;;;;;;;;;;;;;;;-140.72;0.00;52228.53;5089849;28;19916;-72
2024/01/03 07:12:09;;;;;;;;;;;;;;;-140.72;0.00;52212.31;5090790;28;19932;-72
2024/01/03 07:14:34;;;;;;;;;;;;;;;-140.72;0.00;52210.28;5096957;28;19942;-74
2024/01/03 07:16:59;;;;;;;;;;;;;;;-140.72;0.00;52269.13;5091447;28;19920;-71
2024/01/03 07:19:25;;;;;;;;;;;;;;;-140.72;0.00;52256.94;5086682;28;19922;-72
2024/01/03 07:21:50;;;;;;;;;;;;;;;-140.72;0.00;52242.75;5086757;28;20918;-73
2024/01/03 07:24:15;;;;;;;;;;;;;;;-140.72;0.00;52226.50;5099685;28;19925;-73
2024/01/03 07:26:41;;;;;;;;;;;;;;;-140.72;0.00;52222.44;5090545;28;19920;-72
2024/01/03 07:29:06;;;;;;;;;;;;;;;-140.72;0.00;52222.44;5087013;28;19916;-74
2024/01/03 07:31:31;;;;;;;;;;;;;;;-140.72;0.00;52261.00;5091130;28;20372;-73
2024/01/03 07:33:56;;;;;;;;;;;;;;;-140.72;0.00;52275.19;5068654;28;19925;-72
2024/01/03 07:36:22;;;;;;;;;;;;;;;-140.72;0.00;52256.94;5087272;28;19920;-71
2024/01/03 07:38:47;;;;;;;;;;;;;;;-140.72;0.00;52222.44;5082162;28;19916;-71
2024/01/03 07:41:19;;;;;;;;;;;;;;;-140.72;0.00;52218.38;5091186;28;19916;-72
2024/01/03 07:43:45;;;;;;;;;;;;;;;-140.72;0.00;52206.22;5074990;28;20421;-71
2024/01/03 07:46:10;;;;;;;;;;;;;;;-140.72;0.00;52265.06;5099393;28;20014;-71
2024/01/03 07:48:35;;;;;;;;;;;;;;;-140.72;0.00;52183.91;5095600;28;19930;-71
2024/01/03 07:51:00;;;;;;;;;;;;;;;-140.72;0.00;52198.09;5076174;28;19920;-71
2024/01/03 07:53:26;;;;;;;;;;;;;;;-140.72;0.00;52218.38;5075912;28;19931;-71
2024/01/03 07:55:53;;;;;;;;;;;;;;;-140.72;0.00;52200.13;5066394;28;19923;-71
2024/01/03 07:58:18;;;;;;;;;;;;;;;-140.72;0.00;52200.13;5096689;28;20024;-71
2024/01/03 08:00:43;;;;;;;;;;;;;;;-140.72;0.00;52212.31;5065403;28;19931;-71
2024/01/03 08:03:08;;;;;;;;;;;;;;;-140.72;0.00;52214.34;5095756;28;19930;-71
2024/01/03 08:05:33;;;;;;;;;;;;;;;-140.72;0.00;52218.38;5085029;28;19924;-71
2024/01/03 08:07:59;;;;;;;;;;;;;;;-140.72;0.00;52267.09;5075808;28;19924;-71
2024/01/03 08:10:24;;;;;;;;;;;;;;;-140.72;0.00;52210.28;5084534;28;19923;-71
2024/01/03 08:12:49;;;;;;;;;;;;;;;-140.72;0.00;52204.19;5111503;28;19916;-71
2024/01/03 08:15:14;;;;;;;;;;;;;;;-140.72;0.00;52216.34;5087127;28;19916;-71
2024/01/03 08:17:39;;;;;;;;;;;;;;;-140.72;0.00;52238.69;5081355;28;20018;-71
2024/01/03 08:20:05;;;;;;;;;;;;;;;-140.72;0.00;52246.78;5103793;28;20006;-71
2024/01/03 08:22:30;;;;;;;;;;;;;;;-140.72;0.00;52196.06;5100636;28;20011;-70
2024/01/03 08:24:55;;;;;;;;;;;;;;;-140.72;0.00;52238.69;5094841;28;19920;-71
2024/01/03 08:27:21;;;;;;;;;;;;;;;-140.72;0.00;52261.00;5082189;28;19970;-71
2024/01/03 08:29:47;;;;;;;;;;;;;;;-140.72;0.00;52220.41;5086686;28;19920;-71
2024/01/03 08:32:13;;;;;;;;;;;;;;;-140.72;0.00;52189.97;5100006;28;20288;-71
2024/01/03 08:34:38;;;;;;;;;;;;;;;-140.72;0.00;52216.34;5087814;28;19931;-71
2024/01/03 08:37:03;;;;;;;;;;;;;;;-140.72;0.00;52222.44;5072035;28;19916;-71
2024/01/03 08:39:29;;;;;;;;;;;;;;;-140.72;0.00;52202.16;5087692;28;19928;-71
2024/01/03 08:41:54;;;;;;;;;;;;;;;-140.72;0.00;52224.47;5097871;28;20289;-71
2024/01/03 08:44:20;;;;;;;;;;;;;;;-140.72;0.00;52212.31;5089461;28;20432;-72
2024/01/03 08:46:45;;;;;;;;;;;;;;;-140.72;0.00;52224.47;5066452;28;19920;-71
2024/01/03 08:49:10;;;;;;;;;;;;;;;-140.72;0.00;52238.69;5100087;28;19974;-71
2024/01/03 08:51:35;;;;;;;;;;;;;;;-140.72;0.00;52196.06;5096141;28;19920;-72
2024/01/03 08:54:01;;;;;;;;;;;;;;;-140.72;0.00;52175.78;5085850;28;19924;-71
2024/01/03 08:56:26;;;;;;;;;;;;;;;-140.72;0.00;52187.97;5068293;28;19927;-71
2024/01/03 08:58:52;;;;;;;;;;;;;;;-140.72;0.00;52224.47;5066533;28;19934;-71
2024/01/03 09:01:18;;;;;;;;;;;;;;;-140.72;0.00;52167.66;5082105;28;19920;-71
2024/01/03 09:03:43;;;;;;;;;;;;;;;-140.72;0.00;52236.66;5079857;28;19916;-71
2024/01/03 09:06:09;;;;;;;;;;;;;;;-140.72;0.00;52226.50;5080350;28;19920;-71
2024/01/03 09:08:34;;;;;;;;;;;;;;;-140.72;0.00;52175.78;5087311;28;19921;-71
2024/01/03 09:10:59;;;;;;;;;;;;;;;-140.72;0.00;52224.47;5089711;28;20402;-71
2024/01/03 09:13:25;;;;;;;;;;;;;;;-140.72;0.00;52169.69;5078716;28;19916;-71
2024/01/03 09:15:50;;;;;;;;;;;;;;;-140.72;0.00;52216.34;5091082;28;20345;-71
2024/01/03 09:18:16;;;;;;;;;;;;;;;-140.72;0.00;52218.38;5076679;28;19916;-70
2024/01/03 09:20:41;;;;;;;;;;;;;;;-140.72;0.00;52236.66;5072356;28;19974;-71
2024/01/03 09:23:06;;;;;;;;;;;;;;;-140.72;0.00;52208.25;5084621;28;19927;-70
2024/01/03 09:25:31;;;;;;;;;;;;;;;-140.72;0.00;52250.84;5086236;28;20018;-70
2024/01/03 09:27:57;;;;;;;;;;;;;;;-140.72;0.00;52183.91;5062325;28;20270;-71
2024/01/03 09:30:23;;;;;;;;;;;;;;;-140.72;0.00;52220.41;5085581;28;20216;-71
2024/01/03 09:32:49;;;;;;;;;;;;;;;-140.72;0.00;52189.97;5092637;28;20033;-71
2024/01/03 09:35:14;;;;;;;;;;;;;;;-140.72;0.00;52248.81;5101000;28;20353;-71
2024/01/03 09:37:40;;;;;;;;;;;;;;;-140.72;0.00;52204.19;5073036;28;19927;-71
2024/01/03 09:40:05;;;;;;;;;;;;;;;-140.72;0.00;52208.25;5085213;28;20327;-71
2024/01/03 09:42:31;;;;;;;;;;;;;;;-140.72;0.00;52258.97;5083002;28;20405;-71
2024/01/03 09:44:57;;;;;;;;;;;;;;;-140.72;0.00;52214.34;5083635;28;19958;-71
2024/01/03 09:47:22;;;;;;;;;;;;;;;-140.72;0.00;52267.09;5086296;28;19977;-72
2024/01/03 09:49:47;;;;;;;;;;;;;;;-140.72;0.00;52222.44;5076351;28;19920;-71
2024/01/03 09:52:13;;;;;;;;;;;;;;;-140.72;0.00;52206.22;5089157;28;19973;-71
2024/01/03 09:54:38;;;;;;;;;;;;;;;-140.72;0.00;52192.00;5064452;28;19973;-71
2024/01/03 09:57:04;;;;;;;;;;;;;;;-140.72;0.00;52189.97;5080510;28;19917;-71
2024/01/03 09:59:29;;;;;;;;;;;;;;;-140.72;0.00;52222.44;5086349;28;19920;-71
2024/01/03 10:01:56;;;;;;;;;;;;;;;-140.72;0.00;52248.81;5096720;28;19916;-71
2024/01/03 10:04:21;;;;;;;;;;;;;;;-140.72;0.00;52167.66;5089234;28;19981;-71
2024/01/03 10:06:53;;;;;;;;;;;;;;;-140.72;0.00;52220.41;5078852;28;19922;-71
2024/01/03 10:09:18;;;;;;;;;;;;;;;-140.72;0.00;52234.63;5080404;28;19916;-71
2024/01/03 10:11:44;;;;;;;;;;;;;;;-140.72;0.00;52200.13;5089452;28;20393;-71
2024/01/03 10:14:24;;;;;;;;;;;;;;;-140.72;0.00;52228.53;5094343;28;19965;-71
2024/01/03 10:16:49;;;;;;;;;;;;;;;-140.72;0.00;52204.19;5098008;28;20332;-71
2024/01/03 10:19:15;;;;;;;;;;;;;;;-140.72;0.00;52220.41;5093490;28;19921;-71
2024/01/03 10:21:50;;;;;;;;;;;;;;;-140.72;0.00;52183.91;5094159;28;19920;-71
2024/01/03 10:24:21;;;;;;;;;;;;;;;-140.72;0.00;52202.16;5095589;28;19967;-71
2024/01/03 10:26:46;;;;;;;;;;;;;;;-140.72;0.00;52173.75;5089482;28;20306;-74
2024/01/03 10:29:12;;;;;;;;;;;;;;;-140.72;0.00;52187.97;5089043;28;19960;-73
2024/01/03 10:31:40;;;;;;;;;;;;;;;-140.72;0.00;52157.53;5086506;28;19966;-71
2024/01/03 10:34:07;;;;;;;;;;;;;;;-140.72;0.00;52204.19;5086320;28;19923;-71
2024/01/03 10:36:34;;;;;;;;;;;;;;;-140.72;0.00;52196.06;5099164;28;20239;-70
2024/01/03 10:39:00;;;;;;;;;;;;;;;-140.72;0.00;52210.28;5078564;28;19924;-70
2024/01/03 10:41:25;;;;;;;;;;;;;;;-140.72;0.00;52232.59;5090812;28;20344;-70
2024/01/03 10:43:51;;;;;;;;;;;;;;;-140.72;0.00;52167.66;5086459;28;20277;-71
2024/01/03 10:46:18;;;;;;;;;;;;;;;-140.72;0.00;52177.81;5088504;28;19921;-71
2024/01/03 10:48:43;;;;;;;;;;;;;;;-140.72;0.00;52222.44;5089947;28;19920;-71
2024/01/03 10:51:12;;;;;;;;;;;;;;;-140.72;0.00;52167.66;5086594;28;20239;-71
2024/01/03 10:53:40;;;;;;;;;;;;;;;-140.72;0.00;52204.19;5093061;28;20419;-71
2024/01/03 10:56:07;;;;;;;;;;;;;;;-140.72;0.00;52198.09;5090657;28;20434;-71
2024/01/03 10:58:32;;;;;;;;;;;;;;;-140.72;0.00;52161.56;5102056;28;20262;-70
2024/01/03 11:01:06;;;;;;;;;;;;;;;-140.72;0.00;52155.50;5095999;28;19923;-70
2024/01/03 11:03:34;;;;;;;;;;;;;;;-140.72;0.00;52187.97;5091603;28;20022;-71
2024/01/03 11:05:59;;;;;;;;;;;;;;;-140.72;0.00;52145.34;5097142;28;19939;-79
2024/01/03 11:08:31;;;;;;;;;;;;;;;-140.72;0.00;52149.41;5079213;28;19920;-72
2024/01/03 11:10:56;;;;;;;;;;;;;;;-140.72;0.00;52216.34;5093888;28;19934;-72
2024/01/03 11:13:29;;;;;;;;;;;;;;;-140.72;0.00;52173.75;5095916;28;19924;-72
2024/01/03 11:15:54;;;;;;;;;;;;;;;-140.72;0.00;52216.34;5066831;28;19920;-71
2024/01/03 11:18:38;;;;;;;;;;;;;;;-140.72;0.00;52157.53;5091647;28;20000;-70
2024/01/03 11:21:23;;;;;;;;;;;;;;;-140.72;0.00;52161.56;5081480;28;20013;-70
2024/01/03 11:23:48;;;;;;;;;;;;;;;-140.72;0.00;52118.97;5080901;28;20015;-70
2024/01/03 11:26:14;;;;;;;;;;;;;;;-140.72;0.00;52183.91;5078763;28;20057;-70
2024/01/03 11:28:47;;;;;;;;;;;;;;;-140.72;0.00;52189.97;5079645;28;19978;-70
2024/01/03 11:31:12;;;;;;;;;;;;;;;-140.72;0.00;52137.22;5085738;28;19916;-70
2024/01/03 11:33:38;;;;;;;;;;;;;;;-140.72;0.00;52163.59;5081804;28;19920;-71
2024/01/03 11:36:03;;;;;;;;;;;;;;;-140.72;0.00;52187.97;5091032;28;19920;-71
2024/01/03 11:38:41;;;;;;;;;;;;;;;-140.72;0.00;52108.81;5095105;28;20011;-71
2024/01/03 11:41:08;;;;;;;;;;;;;;;-140.72;0.00;52151.44;5087384;28;20038;-71
2024/01/03 11:43:33;;;;;;;;;;;;;;;-140.72;0.00;52147.38;5091771;28;20278;-70
2024/01/03 11:46:09;;;;;;;;;;;;;;;-140.72;0.00;52200.13;5086188;28;19972;-71
2024/01/03 11:48:34;;;;;;;;;;;;;;;-140.72;0.00;52139.25;5085268;28;19924;-71
2024/01/03 11:50:59;;;;;;;;;;;;;;;-140.72;0.00;52139.25;5080471;28;20234;-71
2024/01/03 11:53:25;;;;;;;;;;;;;;;-140.72;0.00;52121.00;5091825;28;19999;-71
2024/01/03 11:55:51;;;;;;;;;;;;;;;-140.72;0.00;52137.22;5081188;28;19920;-71
2024/01/03 11:58:16;;;;;;;;;;;;;;;-140.72;0.00;52151.44;5084364;28;19916;-70
2024/01/03 12:00:41;;;;;;;;;;;;;;;-140.72;0.00;52147.38;5089998;28;20019;-70
2024/01/03 12:03:06;;;;;;;;;;;;;;;-140.72;0.00;52151.44;5079747;28;19916;-69
2024/01/03 12:05:42;;;;;;;;;;;;;;;-140.72;0.00;52086.50;5087158;28;19916;-70
2024/01/03 12:08:07;;;;;;;;;;;;;;;-140.72;0.00;52143.31;5069834;28;19927;-70
2024/01/03 12:10:33;;;;;;;;;;;;;;;-140.72;0.00;52129.13;5091354;28;20362;-70
2024/01/03 12:12:58;;;;;;;;;;;;;;;-140.72;0.00;52123.03;5091828;28;20297;-70
2024/01/03 12:15:27;;;;;;;;;;;;;;;-140.72;0.00;52161.56;5104474;28;19939;-70
2024/01/03 12:17:53;;;;;;;;;;;;;;;-140.72;0.00;52114.91;5073314;28;19923;-70
2024/01/03 12:20:20;;;;;;;;;;;;;;;-140.72;0.00;52167.66;5092626;28;19920;-70
2024/01/03 12:22:45;;;;;;;;;;;;;;;-140.72;0.00;52133.16;5091105;28;20003;-70
2024/01/03 12:25:18;;;;;;;;;;;;;;;-140.72;0.00;52159.56;5094938;28;20348;-70
2024/01/03 12:27:43;;;;;;;;;;;;;;;-140.72;0.00;52220.41;5093249;28;19992;-72
2024/01/03 12:30:10;;;;;;;;;;;;;;;-140.72;0.00;52173.75;5090234;28;19924;-69